Rothschild, Wisconsin
Current Conditions -  °F | °C
As of 5:54 AM on Sunday 25 Jan 2015 (Local Time) from KAUW Reporting Station
Overcast Overcast  
Wind Chill:   Ceiling: 4700
Heat Index: 17°   Visibility: 10mi
Dew Point:   Wind: 12mph
Humidity: 71%   Direction: 60°ENE
Pressure: 29.85"   Gusts: NA
Location:  44.89°N, 89.62°W
Report Text: KAUW 251154Z AUTO 06010KT 10SM OVC047 M08/M13 A2985 RMK AO2 SLP130 T10831128 11011 21083 53019
Loading
Personal Weather Stations






























Interactive Weather Map New forecast layout! Learn more

10-Day Weather Forecast

Advertisements
Track Severe Weather on mobile